Schneifelwetter: Wetterstation Hallschlag, 537 m . NN
Wetterdaten: Sonntag, 14.02.2010
Datum Zeit Temp. A. Feuchte A. Luftdruck Regen Wind Richtung Richtung Sonnenschein Helligkeit T Regen Taupunkt Windchill
14.02.2010 00:00 -7,2 C 93 % 1011 hPa 0,0 l/m 8,3 km/h (2 Bft) W 260 0 min 0 lux 0,00 min -8,1 C -9,6 C
14.02.2010 00:15 -7,2 C 93 % 1011 hPa 0,0 l/m 8,6 km/h (2 Bft) W-SW 250 0 min 0 lux 0,00 min -8,1 C -9,9 C
14.02.2010 00:30 -7,2 C 93 % 1011 hPa 0,0 l/m 8,8 km/h (2 Bft) W-SW 250 0 min 0 lux 0,00 min -8,1 C -10,1 C
14.02.2010 00:45 -7,2 C 94 % 1011 hPa 0,0 l/m 9,5 km/h (2 Bft) W-SW 250 0 min 0 lux 0,00 min -8,0 C -10,9 C
14.02.2010 01:00 -7,1 C 94 % 1011 hPa 0,0 l/m 9,2 km/h (2 Bft) W-SW 250 0 min 0 lux 0,00 min -7,9 C -10,5 C
14.02.2010 01:15 -7,2 C 94 % 1011 hPa 0,0 l/m 7,0 km/h (2 Bft) W-SW 250 0 min 0 lux 0,00 min -8,0 C -8,0 C
14.02.2010 01:30 -7,2 C 94 % 1011 hPa 0,0 l/m 6,7 km/h (2 Bft) W-SW 250 0 min 0 lux 0,00 min -8,0 C -7,6 C
14.02.2010 01:45 -7,2 C 94 % 1011 hPa 0,0 l/m 9,2 km/h (2 Bft) W-SW 245 0 min 0 lux 0,00 min -8,0 C -10,6 C
14.02.2010 02:00 -7,1 C 94 % 1011 hPa 0,0 l/m 6,8 km/h (2 Bft) W-SW 250 0 min 0 lux 0,00 min -7,9 C -7,6 C
14.02.2010 02:15 -7,1 C 94 % 1011 hPa 0,0 l/m 11,0 km/h (2 Bft) W-SW22.5 250 0 min 0 lux 0,00 min -7,9 C -12,3 C
14.02.2010 02:31 -7,0 C 94 % 1011 hPa 0,0 l/m 10,5 km/h (2 Bft) W-SW 250 0 min 0 lux 0,00 min -7,8 C -11,7 C
14.02.2010 02:46 -7,0 C 94 % 1011 hPa 0,0 l/m 12,0 km/h (2 Bft) W-SW22.5 255 0 min 0 lux 0,00 min -7,8 C -13,1 C
14.02.2010 03:01 -6,9 C 94 % 1010 hPa 0,0 l/m 11,5 km/h (2 Bft) W-SW22.5 245 0 min 0 lux 0,00 min -7,7 C -12,5 C
14.02.2010 03:16 -6,9 C 94 % 1010 hPa 0,0 l/m 12,8 km/h (3 Bft) W-SW 250 0 min 0 lux 0,00 min -7,7 C -13,6 C
14.02.2010 03:31 -6,9 C 95 % 1010 hPa 0,0 l/m 12,7 km/h (3 Bft) W-SW 250 0 min 0 lux 0,00 min -7,6 C -13,5 C
14.02.2010 03:46 -6,8 C 95 % 1010 hPa 0,0 l/m 11,7 km/h (2 Bft) W-SW 255 0 min 0 lux 0,00 min -7,5 C -12,6 C
14.02.2010 04:01 -6,9 C 95 % 1010 hPa 0,0 l/m 11,3 km/h (2 Bft) W-SW 250 0 min 0 lux 0,00 min -7,6 C -12,3 C
14.02.2010 04:16 -6,9 C 95 % 1010 hPa 0,0 l/m 9,8 km/h (2 Bft) W-SW 250 0 min 0 lux 0,00 min -7,6 C -10,9 C
14.02.2010 04:31 -6,8 C 95 % 1010 hPa 0,0 l/m 10,3 km/h (2 Bft) W-SW 250 0 min 0 lux 0,00 min -7,5 C -11,3 C
14.02.2010 04:46 -6,8 C 95 % 1009 hPa 0,0 l/m 9,6 km/h (2 Bft) W-SW 255 0 min 0 lux 0,00 min -7,5 C -10,6 C
14.02.2010 05:01 -6,8 C 95 % 1009 hPa 0,0 l/m 7,9 km/h (2 Bft) W-SW 245 0 min 0 lux 0,00 min -7,5 C -8,7 C
14.02.2010 05:16 -6,7 C 95 % 1009 hPa 0,0 l/m 8,9 km/h (2 Bft) W-SW 255 0 min 0 lux 0,00 min -7,4 C -9,7 C
14.02.2010 05:31 -6,7 C 95 % 1009 hPa 0,0 l/m 7,2 km/h (2 Bft) W-SW 245 0 min 0 lux 0,00 min -7,4 C -7,7 C
14.02.2010 05:45 -6,7 C 95 % 1009 hPa 0,0 l/m 7,8 km/h (2 Bft) W 260 0 min 0 lux 0,00 min -7,4 C -8,4 C
14.02.2010 06:00 -6,7 C 95 % 1009 hPa 0,0 l/m 5,9 km/h (2 Bft) W 260 0 min 0 lux 0,00 min -7,4 C -6,7 C
14.02.2010 06:15 -6,7 C 95 % 1009 hPa 0,0 l/m 5,9 km/h (2 Bft) W-SW 255 0 min 0 lux 0,00 min -7,4 C -6,7 C
14.02.2010 06:30 -6,7 C 95 % 1009 hPa 0,0 l/m 3,3 km/h (1 Bft) W-SW 250 0 min 0 lux 0,00 min -7,4 C -6,7 C
14.02.2010 06:45 -6,7 C 95 % 1009 hPa 0,0 l/m 5,2 km/h (1 Bft) W-SW 250 0 min 0 lux 0,00 min -7,4 C -6,7 C
14.02.2010 07:00 -6,7 C 95 % 1009 hPa 0,0 l/m 6,4 km/h (2 Bft) W-SW 255 0 min 0 lux 0,00 min -7,4 C -6,6 C
14.02.2010 07:15 -6,7 C 95 % 1009 hPa 0,0 l/m 4,6 km/h (1 Bft) W-SW 255 0 min 0 lux 0,00 min -7,4 C -6,7 C
14.02.2010 07:30 -6,7 C 95 % 1009 hPa 0,0 l/m 3,3 km/h (1 Bft) W-SW 255 0 min 56 lux 0,00 min -7,4 C -6,7 C
14.02.2010 07:45 -6,6 C 95 % 1009 hPa 0,0 l/m 0,8 km/h (0 Bft) W 260 0 min 179 lux 0,00 min -7,3 C -6,6 C
14.02.2010 08:00 -6,7 C 95 % 1009 hPa 0,0 l/m 0,7 km/h (0 Bft) W 260 0 min 643 lux 0,00 min -7,4 C -6,7 C
14.02.2010 08:15 -6,7 C 95 % 1009 hPa 0,0 l/m 1,0 km/h (0 Bft) W45 260 0 min 1,02 klux 0,00 min -7,4 C -6,7 C
14.02.2010 08:30 -6,5 C 95 % 1009 hPa 0,3 l/m 0,0 km/h (0 Bft) W 260 0 min 1,55 klux 15,00 min -7,2 C -6,5 C
14.02.2010 08:45 -6,4 C 95 % 1009 hPa 0,0 l/m 0,0 km/h (0 Bft) W 260 0 min 2,78 klux 0,00 min -7,1 C -6,4 C
14.02.2010 09:00 -6,2 C 95 % 1009 hPa 0,0 l/m 0,0 km/h (0 Bft) W 260 0 min 4,12 klux 0,00 min -6,9 C -6,2 C
14.02.2010 09:15 -5,9 C 95 % 1009 hPa 0,0 l/m 0,3 km/h (0 Bft) W 260 0 min 5,30 klux 0,00 min -6,6 C -5,9 C
14.02.2010 09:30 -5,7 C 95 % 1009 hPa 0,0 l/m 3,5 km/h (1 Bft) W 260 0 min 6,37 klux 0,00 min -6,4 C -5,7 C
14.02.2010 09:45 -5,4 C 95 % 1009 hPa 0,0 l/m 5,1 km/h (1 Bft) W 260 0 min 8,67 klux 0,00 min -6,1 C -5,4 C
14.02.2010 10:00 -4,9 C 94 % 1009 hPa 0,0 l/m 7,2 km/h (2 Bft) W 260 0 min 12,6 klux 0,00 min -5,7 C -5,9 C
14.02.2010 10:15 -4,5 C 93 % 1009 hPa 0,0 l/m 5,6 km/h (1 Bft) W 260 0 min 15,4 klux 0,00 min -5,5 C -4,5 C
14.02.2010 10:30 -4,1 C 92 % 1009 hPa 0,0 l/m 5,0 km/h (1 Bft) W 260 0 min 15,9 klux 0,00 min -5,2 C -4,1 C
14.02.2010 10:45 -4,0 C 91 % 1009 hPa 0,0 l/m 3,5 km/h (1 Bft) W 260 0 min 17,5 klux 0,00 min -5,2 C -4,0 C
14.02.2010 11:00 -3,6 C 90 % 1009 hPa 0,0 l/m 5,9 km/h (2 Bft) W 260 0 min 18,4 klux 0,00 min -5,0 C -3,6 C
14.02.2010 11:16 -3,3 C 89 % 1009 hPa 0,0 l/m 8,0 km/h (2 Bft) W 260 0 min 19,5 klux 0,00 min -4,8 C -5,1 C
14.02.2010 11:30 -3,2 C 89 % 1009 hPa 0,0 l/m 6,9 km/h (2 Bft) W-SW 255 0 min 24,7 klux 0,00 min -4,7 C -3,8 C
14.02.2010 11:45 -2,8 C 87 % 1009 hPa 0,0 l/m 7,5 km/h (2 Bft) W-SW 255 15 min 28,9 klux 0,00 min -4,7 C -4,0 C
14.02.2010 12:00 -2,5 C 87 % 1009 hPa 0,3 l/m 8,0 km/h (2 Bft) W-SW 255 15 min 26,7 klux 15,00 min -4,4 C -4,3 C
14.02.2010 12:15 -2,4 C 85 % 1009 hPa 0,0 l/m 9,9 km/h (2 Bft) W22.5 260 15 min 26,9 klux 0,00 min -4,6 C -6,0 C
14.02.2010 12:30 -2,0 C 85 % 1009 hPa 0,0 l/m 13,1 km/h (3 Bft) W22.5 260 15 min 30,3 klux 0,00 min -4,2 C -8,1 C
14.02.2010 12:45 -2,0 C 82 % 1009 hPa 0,0 l/m 9,8 km/h (2 Bft) W 260 15 min 35,1 klux 0,00 min -4,7 C -5,5 C
14.02.2010 13:01 -2,0 C 83 % 1008 hPa 0,0 l/m 10,3 km/h (2 Bft) W22.5 260 16 min 32,3 klux 0,00 min -4,5 C -5,9 C
14.02.2010 13:15 -2,0 C 84 % 1008 hPa 0,0 l/m 10,4 km/h (2 Bft) W-SW 245 0 min 26,3 klux 0,00 min -4,3 C -6,0 C
14.02.2010 13:30 -1,8 C 84 % 1008 hPa 0,0 l/m 10,0 km/h (2 Bft) W-SW 255 0 min 26,3 klux 0,00 min -4,1 C -5,4 C
14.02.2010 13:45 -1,7 C 82 % 1008 hPa 0,0 l/m 10,5 km/h (2 Bft) W-SW22.5 250 0 min 25,9 klux 0,00 min -4,4 C -5,8 C
14.02.2010 14:00 -1,7 C 82 % 1008 hPa 0,0 l/m 10,4 km/h (2 Bft) W-SW22.5 255 0 min 26,0 klux 0,00 min -4,4 C -5,7 C
14.02.2010 14:15 -1,8 C 81 % 1008 hPa 0,0 l/m 9,4 km/h (2 Bft) W 265 0 min 25,1 klux 0,00 min -4,6 C -4,9 C
14.02.2010 14:30 -1,8 C 81 % 1008 hPa 0,0 l/m 9,3 km/h (2 Bft) W-SW 250 0 min 24,3 klux 0,00 min -4,6 C -4,8 C
14.02.2010 14:46 -1,7 C 82 % 1008 hPa 0,0 l/m 10,6 km/h (2 Bft) W 260 0 min 23,3 klux 0,00 min -4,4 C -5,8 C
14.02.2010 15:00 -2,2 C 81 % 1008 hPa 0,0 l/m 10,2 km/h (2 Bft) W22.5 260 0 min 22,1 klux 0,00 min -5,0 C -6,1 C
14.02.2010 15:15 -2,1 C 82 % 1007 hPa 0,0 l/m 14,3 km/h (3 Bft) W-SW22.5 255 0 min 21,9 klux 0,00 min -4,7 C -9,1 C
14.02.2010 15:30 -2,0 C 82 % 1008 hPa 0,0 l/m 10,0 km/h (2 Bft) W-SW 250 0 min 18,9 klux 0,00 min -4,7 C -5,7 C
14.02.2010 15:45 -2,0 C 83 % 1007 hPa 0,0 l/m 7,9 km/h (2 Bft) W-SW 250 0 min 16,4 klux 0,00 min -4,5 C -3,6 C
14.02.2010 16:00 -2,2 C 83 % 1008 hPa 0,0 l/m 8,1 km/h (2 Bft) W-SW 245 0 min 13,6 klux 0,00 min -4,7 C -4,1 C
14.02.2010 16:16 -2,7 C 83 % 1008 hPa 0,0 l/m 6,1 km/h (2 Bft) SW 235 0 min 10,3 klux 0,00 min -5,2 C -2,7 C
14.02.2010 16:30 -3,1 C 85 % 1008 hPa 0,0 l/m 6,3 km/h (2 Bft) S-SW22.5 195 0 min 7,41 klux 0,00 min -5,3 C -3,1 C
14.02.2010 16:45 -3,4 C 86 % 1007 hPa 0,0 l/m 7,9 km/h (2 Bft) W-SW22.5 255 0 min 6,17 klux 0,00 min -5,4 C -5,1 C
14.02.2010 17:00 -3,6 C 86 % 1007 hPa 0,0 l/m 10,5 km/h (2 Bft) W-SW22.5 250 0 min 4,78 klux 0,00 min -5,6 C -7,9 C
14.02.2010 17:15 -3,7 C 87 % 1007 hPa 0,0 l/m 8,6 km/h (2 Bft) W-SW 250 0 min 3,80 klux 0,00 min -5,5 C -6,2 C
14.02.2010 17:30 -4,0 C 88 % 1007 hPa 0,0 l/m 10,5 km/h (2 Bft) W-SW 245 0 min 2,16 klux 0,00 min -5,7 C -8,3 C
14.02.2010 17:45 -4,2 C 88 % 1007 hPa 0,0 l/m 0,4 km/h (0 Bft) W-SW 250 0 min 1,08 klux 0,00 min -5,9 C -4,2 C
14.02.2010 18:01 -4,4 C 89 % 1007 hPa 0,0 l/m 0,0 km/h (0 Bft) W-SW 250 0 min 470 lux 0,00 min -5,9 C -4,4 C
14.02.2010 18:15 -4,5 C 89 % 1007 hPa 0,0 l/m 0,6 km/h (0 Bft) W-SW 250 0 min 110 lux 0,00 min -6,0 C -4,5 C
14.02.2010 18:30 -4,8 C 90 % 1007 hPa 0,0 l/m 0,3 km/h (0 Bft) W-SW 250 0 min 16 lux 0,00 min -6,2 C -4,8 C
14.02.2010 18:45 -4,9 C 90 % 1007 hPa 0,0 l/m 0,0 km/h (0 Bft) W-SW 250 0 min 3 lux 0,00 min -6,3 C -4,9 C
14.02.2010 19:00 -4,9 C 91 % 1007 hPa 0,0 l/m 0,1 km/h (0 Bft) W-SW 250 0 min 0 lux 0,00 min -6,1 C -4,9 C
14.02.2010 19:15 -5,0 C 91 % 1007 hPa 0,0 l/m 0,5 km/h (0 Bft) W-SW 250 0 min 0 lux 0,00 min -6,2 C -5,0 C
14.02.2010 19:31 -5,0 C 92 % 1007 hPa 0,0 l/m 2,1 km/h (1 Bft) W-SW 250 0 min 0 lux 0,00 min -6,1 C -5,0 C
14.02.2010 19:46 -5,1 C 92 % 1007 hPa 0,0 l/m 3,0 km/h (1 Bft) W-SW 250 0 min 0 lux 0,00 min -6,2 C -5,1 C
14.02.2010 20:00 -5,1 C 92 % 1007 hPa 0,0 l/m 0,7 km/h (0 Bft) W-SW 250 0 min 0 lux 0,00 min -6,2 C -5,1 C
14.02.2010 20:15 -5,0 C 92 % 1007 hPa 0,0 l/m 1,0 km/h (0 Bft) W-SW 240 0 min 0 lux 0,00 min -6,1 C -5,0 C
14.02.2010 20:30 -5,1 C 93 % 1007 hPa 0,0 l/m 6,8 km/h (2 Bft) S-SO22.5 165 0 min 0 lux 0,00 min -6,1 C -5,6 C
14.02.2010 20:45 -5,1 C 93 % 1007 hPa 0,3 l/m 7,4 km/h (2 Bft) S22.5 185 0 min 0 lux 15,00 min -6,1 C -6,3 C
14.02.2010 21:00 -5,1 C 94 % 1007 hPa 0,0 l/m 8,8 km/h (2 Bft) S-SO22.5 165 0 min 0 lux 0,00 min -5,9 C -7,9 C
14.02.2010 21:16 -5,1 C 94 % 1006 hPa 0,0 l/m 9,4 km/h (2 Bft) S22.5 175 0 min 0 lux 0,00 min -5,9 C -8,5 C
14.02.2010 21:30 -5,1 C 94 % 1006 hPa 0,0 l/m 10,9 km/h (2 Bft) S 170 0 min 0 lux 0,00 min -5,9 C -9,9 C
14.02.2010 21:45 -5,1 C 94 % 1006 hPa 0,0 l/m 9,1 km/h (2 Bft) S-SO22.5 160 0 min 0 lux 0,00 min -5,9 C -8,2 C
14.02.2010 22:00 -5,1 C 95 % 1006 hPa 0,0 l/m 12,9 km/h (3 Bft) S22.5 185 0 min 0 lux 0,00 min -5,8 C -11,6 C
14.02.2010 22:15 -5,1 C 95 % 1006 hPa 0,0 l/m 12,6 km/h (3 Bft) S-SO22.5 155 0 min 0 lux 0,00 min -5,8 C -11,4 C
14.02.2010 22:30 -5,1 C 95 % 1006 hPa 0,0 l/m 14,5 km/h (3 Bft) S-SO22.5 160 0 min 0 lux 0,00 min -5,8 C -12,8 C
14.02.2010 22:45 -5,1 C 95 % 1006 hPa 0,3 l/m 14,1 km/h (3 Bft) S22.5 180 0 min 0 lux 15,00 min -5,8 C -12,5 C
14.02.2010 23:01 -5,3 C 95 % 1006 hPa 0,0 l/m 17,5 km/h (3 Bft) S-SO22.5 160 0 min 0 lux 0,00 min -6,0 C -15,0 C
14.02.2010 23:15 -5,3 C 95 % 1006 hPa 0,0 l/m 12,9 km/h (3 Bft) S22.5 170 0 min 0 lux 0,00 min -6,0 C -11,8 C
14.02.2010 23:30 -5,3 C 95 % 1006 hPa 0,0 l/m 14,0 km/h (3 Bft) S22.5 175 0 min 0 lux 0,00 min -6,0 C -12,7 C
14.02.2010 23:45 -5,3 C 95 % 1006 hPa 0,0 l/m 13,8 km/h (3 Bft) S22.5 170 0 min 0 lux 0,00 min -6,0 C -12,5 C
_ Min-Zeit 00:00 14:15 21:16 - 08:30 - - - - - 00:00 23:01
Minimum _ -7,2 C 81 % 1006 hPa - 0,0 km/h (0 Bft) - - - - - -8,1 C -15,0 C
_ Max-Zeit 13:45 03:31 00:00 08:30 23:01 - - 13:01 12:45 08:30 13:30 16:16
Maximum _ -1,7 C 95 % 1011 hPa 0,3 l/m 17,5 km/h
S-SO (3 Bft)
- - 16 min 35,1 klux 15,00 min -4,1 C -2,7 C
Durchschnitt _ -5,0 C 91 % 1009 hPa #1,2 l/m 7,5 km/h (2 Bft) W-SW - #1:31 h 6,68 klux #1:00 h -6,2 C -7,5 C